Saint Germain, WI

12:05 AM CDT on May 29, 2015 (GMT -0500)
Rhinelander-Oneida County | | Change Station
CLOSE
Current Station
Airport
Location: Rhinelander,
Elevation: 1624 ft
Nearby Weather Stations

Elev 1624 ft 45.63 °N, 89.48 °W | Updated 12 minutes ago

Clear
Clear
65 °F
Feels Like 65 °F
N
4
Wind Variable Wind from South

Today
High -- | Low -- °F
--% Chance of Precip.
Yesterday
High -- | Low -- °F
Precip. -- in
5:13 AM 8:38 PM
Waxing Gibbous, 81% visible
Pressure 30.03 in
Visibility 10.0 miles
Clouds Clear
Dew Point 54 °F
Humidity 68%
Rainfall 0.00 in
Snow Depth Not available.
UV 0 out of 12
Pollen 8.50 out of 12
Air Quality Not available.
Flu Activity Sporadic
METAR KRHI 290453Z AUTO 17003KT 10SM CLR 18/12 A3005 RMK AO2 SLP169 T01830122

More Conditions Fewer Conditions

Pressure 30.03 in
Visibility 10.0 miles
Clouds Clear
Dew Point 54 °F
Humidity 68%
Rainfall 0.00 in
Snow Depth Not available.
UV 0 out of 12
Pollen 8.50 out of 12
Air Quality Not available.
Flu Activity Sporadic
METAR KRHI 290453Z AUTO 17003KT 10SM CLR 18/12 A3005 RMK AO2 SLP169 T01830122

More Conditions Fewer Conditions

10-Day Weather Forecast

Almanac

Astronomy

May. 29, 2015 Rise Set
Actual Time
Civil Twilight
Nautical Twilight
Astronomical Twilight
Moon
Length of Visible Light
Length of Day
Tomorrow will be .
, % of the Moon is Illuminated

Today's Extremes

State Highs State Lows

Community

WunderPhotos

Upload Photos

1,825,211 photos uploaded!

WunderBlogs® & News

Nearby

Air Quality

  Air Quality AQ Index Pollutant
Not available.

Snow Depth

Station Depth Elevation

Earthquake Activity

City Distance Mag. Time & Date
Minimum magnitude displayed is 2.5.

Coastal Water Temperatures

Place Temperature

Stations

Nearby Weather Stations

Station Location Temp. Windchill Dew Point Humidity Wind Precip. Elev Updated Type